Biddeford Pool, Maine
Current Conditions -  °F | °C
As of 11:51 AM on Thursday 27 Nov 2014 (Local Time) from KPWM Reporting Station
Broken Clouds Broken Clouds  
Wind Chill: 29°   Ceiling: 7500
Heat Index: 36°   Visibility: 10mi
Dew Point: 26°   Wind: 9mph
Humidity: 67%   Direction: 310°NW
Pressure: 29.93"   Gusts: NA
Location:  43.44°N, 70.34°W
Report Text: KPWM 271651Z 31008KT 10SM FEW021 BKN075 02/M03 A2993 RMK AO2 SLP136 T00221033 $
Loading
Personal Weather Stations






























Interactive Weather Map New forecast layout! Learn more

10-Day Weather Forecast

Advertisements
Track Severe Weather on mobile